Pamukkale, Turkey
Current Conditions -  °F | °C
As of 1:50 PM on Monday 29 Dec 2014 (Local Time) from LTAY Reporting Station
Broken Clouds Broken Clouds  
Wind Chill: 54°   Ceiling: 9000
Heat Index: 54°   Visibility: 6mi
Dew Point: 37°   Wind: 28mph
Humidity: 54%   Direction: 210°SSW
Pressure: 29.85"   Gusts: 39mph
Location:  37.89°N, 29.13°E
Report Text: LTAY 291050Z 21024G34KT 9999 SCT035 BKN090 12/03 Q1011
Loading
Personal Weather Stations






























Interactive Weather Map New forecast layout! Learn more

10-Day Weather Forecast

Advertisements
Track Severe Weather on mobile